Time;durP1;ratioP1;P1;durP2;ratioP2;P2;SDS_P1;SDS_P2;PMS_P1;PMS_P2;Temp;Humidity;BMP_temperature;BMP_pressure;BME280_temperature;BME280_humidity;BME280_pressure;Samples;Min_cycle;Max_cycle;Signal;HPM_P1;HPM_P2
2023/10/02 00:01:18;;;;;;;4.80;3.00;;;19.10;88.10;;;;;;5094096;28;20122;-28
2023/10/02 00:03:48;;;;;;;3.83;2.70;;;19.90;87.70;;;;;;5094080;28;20493;-28
2023/10/02 00:06:16;;;;;;;4.82;3.10;;;19.60;84.60;;;;;;5094277;28;20101;-28
2023/10/02 00:08:43;;;;;;;4.18;2.80;;;;;;;;;;5093748;28;20146;-28
2023/10/02 00:11:42;;;;;;;4.15;3.15;;;19.60;69.90;;;;;;5093929;28;20050;-28
2023/10/02 00:14:19;;;;;;;5.20;2.90;;;19.60;69.90;;;;;;5093947;28;20058;-28
2023/10/02 00:16:58;;;;;;;4.90;3.15;;;20.10;81.60;;;;;;5093698;28;20051;-28
2023/10/02 00:19:28;;;;;;;4.25;2.90;;;18.80;87.90;;;;;;5093918;28;20052;-27
2023/10/02 00:21:57;;;;;;;4.53;2.75;;;;;;;;;;5093598;28;20059;-28
2023/10/02 00:24:26;;;;;;;4.65;3.10;;;19.90;87.80;;;;;;5093725;28;20044;-28
2023/10/02 00:26:57;;;;;;;5.05;3.25;;;20.50;70.20;;;;;;5093762;28;20076;-29
2023/10/02 00:29:25;;;;;;;5.22;2.90;;;;;;;;;;5093707;28;20049;-27
2023/10/02 00:31:52;;;;;;;4.38;2.83;;;;;;;;;;5093505;28;20051;-27
2023/10/02 00:34:30;;;;;;;5.75;3.38;;;19.50;74.80;;;;;;5093636;28;20052;-28
2023/10/02 00:36:58;;;;;;;4.85;3.28;;;19.70;69.70;;;;;;5093076;28;20079;-28
2023/10/02 00:39:30;;;;;;;5.18;3.42;;;;;;;;;;5093119;28;20127;-28
2023/10/02 00:42:16;;;;;;;4.82;3.40;;;19.90;87.80;;;;;;5093499;28;20077;-27
2023/10/02 00:44:52;;;;;;;5.65;3.25;;;19.80;74.40;;;;;;5093403;28;20504;-28
2023/10/02 00:47:35;;;;;;;4.82;3.20;;;19.70;69.70;;;;;;5093237;28;20043;-28
2023/10/02 00:50:10;;;;;;;5.45;3.33;;;19.50;83.80;;;;;;5093255;28;20440;-28
2023/10/02 00:52:40;;;;;;;4.25;2.88;;;19.50;88.10;;;;;;5093377;28;20043;-27
2023/10/02 00:55:07;;;;;;;4.65;2.97;;;20.10;88.00;;;;;;5093294;28;20055;-28
2023/10/02 00:57:36;;;;;;;6.22;3.20;;;19.90;87.30;;;;;;5093037;28;20044;-29
2023/10/02 01:00:06;;;;;;;5.13;3.15;;;19.30;87.10;;;;;;5092864;28;20047;-27
2023/10/02 01:02:35;;;;;;;4.45;3.00;;;19.40;73.50;;;;;;5093192;28;20051;-27
2023/10/02 01:05:03;;;;;;;4.75;3.20;;;19.80;87.70;;;;;;5093118;28;20123;-27
2023/10/02 01:07:33;;;;;;;4.88;3.10;;;20.20;77.70;;;;;;5093019;28;20048;-28
2023/10/02 01:10:08;;;;;;;4.57;2.78;;;19.80;69.60;;;;;;5092466;28;20447;-28
2023/10/02 01:12:43;;;;;;;7.00;3.50;;;19.90;87.10;;;;;;5092882;28;20047;-27
2023/10/02 01:15:11;;;;;;;5.28;3.15;;;19.80;69.50;;;;;;5092917;28;20055;-28
2023/10/02 01:17:40;;;;;;;4.65;3.35;;;19.50;75.40;;;;;;5092809;28;20089;-28
2023/10/02 01:20:12;;;;;;;5.10;3.15;;;19.60;79.70;;;;;;5092358;28;20135;-27
2023/10/02 01:22:42;;;;;;;4.75;3.10;;;19.50;87.80;;;;;;5092074;28;20126;-28
2023/10/02 01:25:13;;;;;;;4.47;2.92;;;20.70;87.60;;;;;;5092653;28;20412;-26
2023/10/02 01:27:46;;;;;;;5.88;3.45;;;;;;;;;;5072595;28;20058;-29
2023/10/02 01:30:17;;;;;;;4.80;3.10;;;;;;;;;;5072064;28;20059;-28
2023/10/02 01:33:06;;;;;;;5.07;3.10;;;19.70;87.00;;;;;;5072362;28;20143;-28
2023/10/02 01:35:36;;;;;;;4.45;3.00;;;19.80;69.40;;;;;;5071983;28;20052;-28
2023/10/02 01:38:09;;;;;;;6.05;3.28;;;19.70;79.10;;;;;;5090451;28;20055;-28
2023/10/02 01:40:37;;;;;;;5.65;3.70;;;19.70;84.30;;;;;;5092110;28;20187;-27
2023/10/02 01:43:12;;;;;;;5.30;3.33;;;20.00;87.20;;;;;;5092415;28;20106;-27
2023/10/02 01:45:43;;;;;;;4.53;3.00;;;20.00;85.40;;;;;;5092401;28;20071;-27
2023/10/02 01:48:14;;;;;;;4.43;2.88;;;20.00;87.90;;;;;;5092067;28;20082;-28
2023/10/02 01:50:44;;;;;;;5.22;3.17;;;20.20;87.20;;;;;;5092054;28;20058;-26
2023/10/02 01:53:29;;;;;;;5.63;3.30;;;19.20;87.10;;;;;;5092228;28;20059;-27
2023/10/02 01:56:05;;;;;;;4.10;2.80;;;20.30;77.80;;;;;;5092263;28;20047;-28
2023/10/02 01:58:32;;;;;;;4.68;3.15;;;20.10;74.80;;;;;;5092013;28;20135;-28
2023/10/02 02:01:00;;;;;;;4.78;2.95;;;;;;;;;;5092061;28;20076;-28
2023/10/02 02:03:28;;;;;;;4.72;3.15;;;19.80;87.90;;;;;;5092245;28;20048;-28
2023/10/02 02:05:55;;;;;;;4.53;2.97;;;18.90;86.80;;;;;;5092271;28;20048;-28
2023/10/02 02:08:25;;;;;;;5.63;2.83;;;19.80;86.80;;;;;;5091986;28;20566;-29
2023/10/02 02:10:54;;;;;;;3.70;2.70;;;19.70;72.10;;;;;;5091922;28;20044;-28
2023/10/02 02:13:22;;;;;;;5.35;3.38;;;19.70;86.70;;;;;;5092194;28;20071;-28
2023/10/02 02:15:51;;;;;;;5.07;3.20;;;19.80;87.30;;;;;;5091334;28;20497;-29
2023/10/02 02:18:20;;;;;;;4.82;3.05;;;20.40;70.10;;;;;;5092028;28;20048;-30
2023/10/02 02:20:58;;;;;;;5.22;3.38;;;20.30;87.10;;;;;;5091766;28;20044;-28
2023/10/02 02:23:27;;;;;;;4.20;3.05;;;19.10;87.30;;;;;;5091995;28;20135;-32
2023/10/02 02:25:54;;;;;;;4.70;2.95;;;19.70;86.70;;;;;;5091879;28;20070;-29
2023/10/02 02:28:22;;;;;;;4.63;3.00;;;19.90;69.30;;;;;;5091954;28;20131;-30
2023/10/02 02:30:49;;;;;;;4.95;3.38;;;19.70;87.60;;;;;;5091717;28;20052;-30
2023/10/02 02:33:16;;;;;;;5.22;3.30;;;19.20;87.40;;;;;;5094584;28;20131;-29
2023/10/02 02:35:44;;;;;;;5.20;3.13;;;19.10;79.60;;;;;;5096003;28;20131;-28
2023/10/02 02:38:14;;;;;;;4.97;3.08;;;;;;;;;;5095464;28;20096;-29
2023/10/02 02:40:42;;;;;;;5.65;3.45;;;19.80;87.70;;;;;;5095954;28;20048;-28
2023/10/02 02:43:19;;;;;;;5.82;3.63;;;;;;;;;;5095805;28;20136;-29
2023/10/02 02:45:46;;;;;;;5.47;3.30;;;19.90;87.80;;;;;;5095318;28;20098;-28
2023/10/02 02:48:15;;;;;;;5.95;3.70;;;20.00;72.40;;;;;;5095797;28;20048;-28
2023/10/02 02:50:42;;;;;;;4.60;3.17;;;;;;;;;;5095525;28;20412;-28
2023/10/02 02:53:22;;;;;;;5.03;3.28;;;19.70;69.80;;;;;;5095967;28;20047;-28
2023/10/02 02:56:09;;;;;;;6.82;4.18;;;19.70;81.80;;;;;;5100241;28;20050;-28
2023/10/02 02:58:38;;;;;;;6.53;4.00;;;18.70;86.50;;;;;;5105625;28;20047;-28
2023/10/02 03:01:08;;;;;;;6.90;3.90;;;19.40;83.90;;;;;;5094897;28;20048;-29
2023/10/02 03:03:41;;;;;;;7.13;3.70;;;19.00;81.00;;;;;;5093696;28;20127;-27
2023/10/02 03:06:17;;;;;;;6.68;4.00;;;20.10;80.80;;;;;;5093490;28;20073;-28
2023/10/02 03:08:44;;;;;;;5.57;3.30;;;20.00;71.90;;;;;;5095176;28;20059;-29
2023/10/02 03:11:11;;;;;;;5.30;3.58;;;19.60;87.00;;;;;;5094909;28;20068;-28
2023/10/02 03:13:39;;;;;;;6.65;3.90;;;19.60;73.40;;;;;;5095260;28;20083;-28
2023/10/02 03:16:12;;;;;;;7.32;4.22;;;20.00;78.50;;;;;;5094955;28;20418;-29
2023/10/02 03:18:43;;;;;;;6.63;3.75;;;20.70;87.50;;;;;;5095063;28;20098;-27
2023/10/02 03:21:15;;;;;;;8.40;4.43;;;19.90;69.50;;;;;;5094782;28;20570;-30
2023/10/02 03:23:43;;;;;;;6.88;3.80;;;20.20;80.50;;;;;;5095035;28;20105;-29
2023/10/02 03:26:26;;;;;;;6.63;3.95;;;20.30;87.90;;;;;;5094814;28;20513;-28
2023/10/02 03:29:00;;;;;;;6.50;3.88;;;20.20;76.80;;;;;;5094795;28;20386;-29
2023/10/02 03:31:36;;;;;;;5.95;4.13;;;19.50;74.80;;;;;;5094671;28;20086;-28
2023/10/02 03:34:24;;;;;;;6.03;3.85;;;19.40;87.90;;;;;;5094857;28;20135;-29
2023/10/02 03:36:51;;;;;;;6.32;4.07;;;;;;;;;;5094121;28;20044;-30
2023/10/02 03:39:51;;;;;;;9.05;4.43;;;;;;;;;;5094923;28;20082;-28
2023/10/02 03:42:13;;;;;;;6.90;4.30;;;19.70;87.20;;;;;;5094041;28;20051;-30
2023/10/02 03:44:40;;;;;;;7.80;4.32;;;20.10;87.00;;;;;;5093829;28;20051;-29
2023/10/02 03:47:12;;;;;;;6.20;4.00;;;19.00;71.00;;;;;;5094659;28;20123;-28
2023/10/02 03:49:41;;;;;;;6.45;4.03;;;19.80;80.50;;;;;;5094583;28;20083;-28
2023/10/02 03:52:08;;;;;;;6.72;4.05;;;20.10;87.60;;;;;;5094330;28;20051;-28
2023/10/02 03:54:35;;;;;;;6.82;4.38;;;19.70;69.60;;;;;;5094374;28;20127;-30
2023/10/02 03:57:02;;;;;;;6.95;4.28;;;19.40;87.50;;;;;;5094315;28;20465;-28
2023/10/02 03:59:32;;;;;;;6.45;4.18;;;19.70;69.60;;;;;;5094251;28;20139;-33
2023/10/02 04:02:24;;;;;;;6.97;4.20;;;19.70;69.50;;;;;;5094630;28;20047;-28
2023/10/02 04:04:47;;;;;;;5.68;3.97;;;20.10;87.90;;;;;;5094025;28;20429;-28
2023/10/02 04:07:17;;;;;;;6.75;4.30;;;;;;;;;;5094069;28;20048;-29
2023/10/02 04:09:49;;;;;;;6.75;4.10;;;19.90;87.60;;;;;;5093860;28;20060;-29
2023/10/02 04:12:17;;;;;;;7.05;4.00;;;;;;;;;;5093867;28;20603;-29
2023/10/02 04:14:44;;;;;;;6.45;3.95;;;20.00;87.20;;;;;;5094286;28;20048;-27
2023/10/02 04:17:13;;;;;;;7.20;4.00;;;18.90;86.70;;;;;;5094192;28;20048;-29
2023/10/02 04:19:43;;;;;;;8.20;4.60;;;20.20;70.20;;;;;;5093888;28;20076;-29
2023/10/02 04:22:19;;;;;;;7.30;4.68;;;19.80;87.20;;;;;;5093632;28;20530;-28
2023/10/02 04:24:54;;;;;;;7.32;3.90;;;18.60;77.60;;;;;;5093803;28;20058;-28
2023/10/02 04:27:25;;;;;;;6.95;4.25;;;19.00;87.20;;;;;;5094075;28;20405;-28
2023/10/02 04:32:39;;;;;;;5.95;4.13;;;20.30;88.30;;;;;;5093648;28;20127;-28
2023/10/02 04:35:40;;;;;;;6.72;4.20;;;19.20;86.80;;;;;;5093562;28;20500;-29
2023/10/02 04:37:57;;;;;;;8.27;4.68;;;20.00;85.70;;;;;;5093038;28;20044;-28
2023/10/02 04:40:23;;;;;;;7.47;4.50;;;;;;;;;;5093347;28;20048;-27
2023/10/02 04:43:14;;;;;;;6.93;4.20;;;;;;;;;;5093468;28;20051;-31
2023/10/02 04:45:44;;;;;;;7.20;4.07;;;19.90;69.50;;;;;;5093546;28;20055;-28
2023/10/02 04:48:11;;;;;;;7.05;4.70;;;19.10;81.00;;;;;;5093480;28;20059;-28
2023/10/02 04:50:45;;;;;;;6.85;4.10;;;19.90;87.10;;;;;;5093076;28;20075;-27
2023/10/02 04:56:21;;;;;;;7.05;4.30;;;19.90;78.50;;;;;;5091882;28;20055;-28
2023/10/02 04:58:49;;;;;;;6.55;4.15;;;20.20;87.70;;;;;;5093177;28;20044;-28
2023/10/02 05:01:34;;;;;;;6.72;4.10;;;19.90;69.40;;;;;;5092725;28;20052;-28
2023/10/02 05:04:02;;;;;;;7.40;4.45;;;19.70;72.60;;;;;;5073194;28;20048;-28
2023/10/02 05:06:43;;;;;;;7.55;4.57;;;;;;;;;;5072619;28;20481;-29
2023/10/02 05:11:56;;;;;;;;;;;19.80;69.70;;;;;;5070261;28;20063;-31
2023/10/02 05:14:26;;;;;;;6.60;4.10;;;19.90;69.50;;;;;;5072450;28;19920;-30
2023/10/02 05:16:56;;;;;;;8.85;5.18;;;19.90;69.30;;;;;;5072360;28;20417;-27
2023/10/02 05:19:56;;;;;;;6.70;4.35;;;19.90;79.90;;;;;;5072635;28;20098;-27
2023/10/02 05:22:09;;;;;;;7.82;5.00;;;20.10;85.60;;;;;;5071995;28;20041;-28
2023/10/02 05:24:37;;;;;;;7.07;4.68;;;19.80;75.10;;;;;;5072463;28;20052;-28
2023/10/02 05:27:04;;;;;;;7.68;4.90;;;19.60;87.60;;;;;;5087610;28;20071;-29
2023/10/02 05:29:41;;;;;;;9.32;5.22;;;20.90;87.40;;;;;;5092998;28;20052;-28
2023/10/02 05:32:19;;;;;;;7.47;4.63;;;;;;;;;;5092348;28;20131;-29
2023/10/02 05:34:58;;;;;;;7.80;4.53;;;20.10;69.40;;;;;;5092535;28;20110;-29
2023/10/02 05:37:30;;;;;;;7.90;4.68;;;19.70;86.80;;;;;;5091826;28;20565;-28
2023/10/02 05:40:37;;;;;;;8.25;4.70;;;20.10;87.50;;;;;;5092562;28;20054;-28
2023/10/02 05:42:53;;;;;;;7.10;4.53;;;;;;;;;;5092069;28;20051;-29
2023/10/02 05:45:37;;;;;;;7.68;5.00;;;20.00;69.30;;;;;;5092340;28;20123;-29
2023/10/02 05:48:08;;;;;;;8.07;4.85;;;20.10;69.40;;;;;;5092341;28;20063;-29
2023/10/02 05:50:37;;;;;;;8.88;4.78;;;20.60;88.10;;;;;;5092400;28;20055;-28
2023/10/02 05:53:06;;;;;;;7.65;4.60;;;20.30;71.10;;;;;;5092201;28;20048;-28
2023/10/02 05:58:27;;;;;;;7.82;4.88;;;20.00;81.80;;;;;;5091847;28;20510;-28
2023/10/02 06:00:55;;;;;;;8.43;4.85;;;20.50;88.10;;;;;;5092268;28;20048;-28
2023/10/02 06:03:22;;;;;;;8.73;5.10;;;20.40;87.10;;;;;;5092119;28;20082;-30
2023/10/02 06:06:10;;;;;;;7.40;4.80;;;20.00;69.20;;;;;;5089647;28;20072;-30
2023/10/02 06:08:40;;;;;;;7.65;4.97;;;;;;;;;;5090817;28;20082;-29
2023/10/02 06:11:26;;;;;;;7.80;4.90;;;20.40;80.50;;;;;;5091060;28;20051;-29
2023/10/02 06:13:55;;;;;;;7.53;4.93;;;20.00;69.20;;;;;;5091200;28;20047;-28
2023/10/02 06:16:24;;;;;;;8.15;4.53;;;20.00;69.20;;;;;;5090975;28;20048;-28
2023/10/02 06:19:00;;;;;;;8.70;4.93;;;19.70;87.00;;;;;;5091379;28;20134;-30
2023/10/02 06:21:28;;;;;;;;;;;20.00;69.20;;;;;;5091295;28;20052;-30
2023/10/02 06:23:56;;;;;;;8.00;4.95;;;;;;;;;;5091077;28;20015;-29
2023/10/02 06:26:29;;;;;;;8.57;5.00;;;18.90;72.60;;;;;;5090906;28;20051;-29
2023/10/02 06:31:41;;;;;;;8.80;5.22;;;;;;;;;;5090218;28;20043;-30
2023/10/02 06:34:08;;;;;;;8.35;5.25;;;19.80;87.10;;;;;;5090729;28;20044;-28
2023/10/02 06:36:45;;;;;;;8.15;4.93;;;;;;;;;;5090175;28;20580;-29
2023/10/02 06:39:13;;;;;;;7.60;4.72;;;;;;;;;;5090711;28;20127;-29
2023/10/02 06:41:41;;;;;;;9.75;5.10;;;20.00;69.10;;;;;;5090598;28;20076;-29
2023/10/02 06:44:15;;;;;;;8.80;5.18;;;20.20;87.20;;;;;;5090705;28;20129;-30
2023/10/02 06:46:52;;;;;;;8.45;4.95;;;20.20;75.00;;;;;;5090723;28;20413;-29
2023/10/02 06:49:20;;;;;;;8.45;5.07;;;20.00;87.20;;;;;;5090378;28;20044;-29
2023/10/02 06:51:49;;;;;;;7.93;5.13;;;20.00;69.10;;;;;;5089513;28;20073;-29
2023/10/02 06:54:19;;;;;;;8.55;5.22;;;20.00;69.10;;;;;;5090639;28;20051;-29
2023/10/02 06:56:48;;;;;;;7.93;4.85;;;20.40;70.00;;;;;;5090737;28;20126;-31
2023/10/02 06:59:16;;;;;;;9.32;4.93;;;20.40;86.50;;;;;;5090692;28;20052;-29
2023/10/02 07:02:04;;;;;;;8.35;5.13;;;19.10;75.40;;;;;;5090275;28;20132;-29
2023/10/02 07:04:31;;;;;;;8.95;5.28;;;;;;;;;;5092153;28;20086;-29
2023/10/02 07:07:03;;;;;;;8.80;5.15;;;19.70;77.80;;;;;;5098947;28;20564;-29
2023/10/02 07:09:37;;;;;;;9.55;5.10;;;19.90;69.10;;;;;;5100406;28;20048;-29
2023/10/02 07:12:13;;;;;;;7.50;5.15;;;19.90;69.10;;;;;;5069979;28;20130;-29
2023/10/02 07:14:41;;;;;;;9.25;5.57;;;19.50;82.80;;;;;;5070034;28;20509;-29
2023/10/02 07:17:17;;;;;;;9.38;5.47;;;20.40;88.70;;;;;;5070061;28;20075;-29
2023/10/02 07:19:50;;;;;;;8.77;5.30;;;19.90;86.90;;;;;;5071691;28;20045;-28
2023/10/02 07:22:18;;;;;;;9.07;5.28;;;19.90;69.20;;;;;;5073412;28;20136;-28
2023/10/02 07:24:46;;;;;;;7.90;5.20;;;20.10;69.30;;;;;;5073759;28;20053;-28
2023/10/02 07:27:27;;;;;;;9.30;5.35;;;19.50;74.70;;;;;;5090450;28;20059;-28
2023/10/02 07:29:56;;;;;;;9.23;5.53;;;20.00;86.90;;;;;;5094125;28;20075;-28
2023/10/02 07:32:23;;;;;;;9.43;5.80;;;19.50;87.60;;;;;;5093926;28;20449;-29
2023/10/02 07:34:51;;;;;;;11.65;6.50;;;20.70;76.00;;;;;;5093574;28;20123;-29
2023/10/02 07:37:21;;;;;;;9.80;6.05;;;20.10;87.30;;;;;;5093573;28;20052;-29
2023/10/02 07:39:56;;;;;;;11.38;6.45;;;19.30;77.70;;;;;;5093760;28;20047;-29
2023/10/02 07:42:31;;;;;;;11.65;6.70;;;20.20;83.50;;;;;;5093488;28;20431;-28
2023/10/02 07:45:11;;;;;;;10.93;6.43;;;20.10;76.20;;;;;;5094369;28;20052;-29
2023/10/02 07:47:55;;;;;;;13.35;6.53;;;20.20;75.70;;;;;;5093083;28;20054;-28
2023/10/02 07:50:33;;;;;;;12.25;6.22;;;19.90;69.80;;;;;;5093083;28;20381;-34
2023/10/02 07:53:01;;;;;;;14.05;6.95;;;;;;;;;;5093442;28;20079;-30
2023/10/02 07:55:27;;;;;;;11.52;6.28;;;19.70;87.80;;;;;;5094037;28;20048;-35
2023/10/02 07:58:00;;;;;;;11.93;6.78;;;20.50;70.20;;;;;;5094549;28;20094;-35
2023/10/02 08:00:38;;;;;;;9.45;5.82;;;19.90;88.30;;;;;;5094432;28;20378;-34
2023/10/02 08:05:51;;;;;;;10.63;6.40;;;19.50;72.10;;;;;;5094188;28;20581;-33
2023/10/02 08:08:18;;;;;;;11.52;6.60;;;19.20;87.60;;;;;;5094093;28;20060;-34
2023/10/02 08:10:50;;;;;;;11.43;6.50;;;19.20;71.00;;;;;;5094121;28;20048;-34
2023/10/02 08:13:18;;;;;;;11.27;6.38;;;19.80;69.80;;;;;;5094214;28;20492;-31
2023/10/02 08:15:45;;;;;;;9.98;6.03;;;;;;;;;;5094042;28;20135;-32
2023/10/02 08:18:17;;;;;;;12.88;6.70;;;19.90;87.50;;;;;;5094039;28;20048;-33
2023/10/02 08:20:45;;;;;;;11.63;6.40;;;18.60;86.70;;;;;;5094081;28;20059;-34
2023/10/02 08:23:21;;;;;;;12.00;6.20;;;19.50;87.30;;;;;;5093956;28;20047;-38
2023/10/02 08:26:00;;;;;;;9.93;6.05;;;20.30;88.00;;;;;;5093712;28;20044;-28
2023/10/02 08:28:29;;;;;;;10.13;5.88;;;19.80;72.40;;;;;;5094112;28;20101;-29
2023/10/02 08:31:01;;;;;;;10.10;5.93;;;19.50;87.30;;;;;;5093415;28;20520;-29
2023/10/02 08:33:30;;;;;;;11.38;6.60;;;20.20;88.50;;;;;;5094021;28;20055;-29
2023/10/02 08:35:58;;;;;;;8.52;5.60;;;19.40;83.00;;;;;;5093333;28;20048;-28
2023/10/02 08:38:26;;;;;;;9.68;5.75;;;20.10;87.30;;;;;;5093568;28;20055;-29
2023/10/02 08:40:58;;;;;;;10.13;6.32;;;19.30;87.00;;;;;;5093527;28;20509;-29
2023/10/02 08:43:24;;;;;;;11.10;5.53;;;19.10;87.40;;;;;;5093844;28;20040;-29
2023/10/02 08:45:53;;;;;;;9.25;5.85;;;19.80;69.70;;;;;;5093803;28;20126;-29
2023/10/02 08:48:21;;;;;;;10.32;6.30;;;19.80;69.70;;;;;;5093162;28;20130;-30
2023/10/02 08:50:48;;;;;;;9.70;5.85;;;;;;;;;;5093244;28;20424;-30
2023/10/02 08:53:20;;;;;;;9.90;5.75;;;19.90;87.70;;;;;;5093406;28;20511;-29
2023/10/02 08:55:54;;;;;;;11.32;6.00;;;20.10;83.70;;;;;;5093579;28;20051;-28
2023/10/02 08:58:22;;;;;;;10.80;5.85;;;19.40;86.90;;;;;;5093427;28;20044;-37
2023/10/02 09:01:20;;;;;;;10.55;5.75;;;19.80;69.60;;;;;;5093139;28;20083;-33
2023/10/02 09:04:21;;;;;;;10.63;5.47;;;19.90;87.30;;;;;;5093346;28;20048;-35
2023/10/02 09:06:41;;;;;;;10.27;5.70;;;19.90;88.10;;;;;;5093122;28;20113;-35
2023/10/02 09:09:17;;;;;;;9.55;5.63;;;;;;;;;;5093086;28;20082;-31
2023/10/02 09:11:44;;;;;;;9.40;6.05;;;19.70;73.70;;;;;;5092690;28;20497;-35
2023/10/02 09:14:16;;;;;;;11.85;5.97;;;20.60;83.00;;;;;;5093140;28;20048;-33
2023/10/02 09:16:46;;;;;;;9.88;5.93;;;19.90;81.60;;;;;;5093008;28;20051;-34
2023/10/02 09:22:06;;;;;;;9.27;5.90;;;19.60;88.00;;;;;;5092630;28;20052;-38
2023/10/02 09:24:34;;;;;;;9.35;5.93;;;19.90;69.70;;;;;;5092740;28;20051;-34
2023/10/02 09:27:20;;;;;;;12.40;6.72;;;20.00;79.00;;;;;;5092970;28;20404;-37
2023/10/02 09:29:48;;;;;;;10.05;6.18;;;19.80;69.60;;;;;;5092846;28;20059;-32
2023/10/02 09:32:25;;;;;;;10.43;5.70;;;20.10;88.10;;;;;;5092600;28;20464;-33
2023/10/02 09:35:10;;;;;;;11.07;6.38;;;20.80;87.70;;;;;;5092415;28;20097;-37
2023/10/02 09:37:38;;;;;;;9.68;5.40;;;20.00;77.90;;;;;;5092441;28;20056;-32
2023/10/02 09:40:14;;;;;;;10.68;5.57;;;20.50;86.80;;;;;;5092575;28;20082;-37
2023/10/02 09:42:45;;;;;;;10.55;5.82;;;18.80;86.70;;;;;;5091763;28;20048;-36
2023/10/02 09:45:15;;;;;;;10.38;5.95;;;20.70;87.60;;;;;;5092405;28;20051;-35
2023/10/02 09:47:44;;;;;;;9.43;5.85;;;20.10;87.60;;;;;;5092788;28;20123;-34
2023/10/02 09:50:14;;;;;;;10.38;5.82;;;19.80;69.50;;;;;;5092141;28;20497;-32
2023/10/02 09:52:57;;;;;;;10.82;6.22;;;19.40;87.60;;;;;;5091836;28;20051;-37
2023/10/02 09:55:33;;;;;;;10.23;5.95;;;20.00;87.10;;;;;;5090237;28;20080;-34
2023/10/02 09:58:03;;;;;;;8.75;5.40;;;20.20;87.20;;;;;;5072179;28;20102;-33
2023/10/02 10:00:36;;;;;;;11.68;5.90;;;20.00;87.90;;;;;;5082559;28;20097;-36
2023/10/02 10:03:32;;;;;;;10.60;5.93;;;20.10;87.20;;;;;;5091869;28;20079;-33
2023/10/02 10:06:27;;;;;;;;;;;19.90;69.90;;;;;;5092430;28;20048;-34
2023/10/02 10:09:50;;;;;;;9.50;5.85;;;20.20;87.30;;;;;;5079903;28;19955;-34
2023/10/02 10:12:50;;;;;;;9.93;5.88;;;19.40;74.40;;;;;;5090701;28;20078;-34
2023/10/02 10:15:25;;;;;;;10.27;5.60;;;20.40;79.80;;;;;;5081468;28;20047;-34
2023/10/02 10:17:58;;;;;;;;;;;19.90;69.60;;;;;;5082075;28;20168;-34
2023/10/02 10:20:27;;;;;;;11.10;6.10;;;19.90;84.20;;;;;;5084267;28;19991;-35
2023/10/02 10:22:56;;;;;;;10.48;5.43;;;20.20;75.30;;;;;;5090244;28;20051;-34
2023/10/02 10:25:44;;;;;;;9.30;5.78;;;20.40;70.20;;;;;;5090372;28;20404;-34
2023/10/02 10:28:14;;;;;;;12.63;5.78;;;;;;;;;;5087725;28;20036;-36
2023/10/02 10:30:44;;;;;;;9.52;5.85;;;;;;;;;;5090325;28;20505;-33
2023/10/02 10:33:40;;;;;;;8.98;5.10;;;20.30;76.30;;;;;;5090533;28;20048;-31
2023/10/02 10:36:25;;;;;;;;;;;20.00;70.00;;;;;;5090552;28;20063;-32
2023/10/02 10:38:54;;;;;;;8.65;5.47;;;20.90;88.00;;;;;;5090555;28;19920;-34
2023/10/02 10:41:32;;;;;;;9.80;6.15;;;19.80;76.20;;;;;;5090008;28;20048;-32
2023/10/02 10:43:59;;;;;;;10.63;5.43;;;19.80;82.90;;;;;;5090605;28;20048;-34
2023/10/02 10:46:28;;;;;;;11.30;5.45;;;20.00;69.70;;;;;;5090803;28;20162;-34
2023/10/02 10:49:07;;;;;;;10.68;5.88;;;21.10;76.40;;;;;;5090768;28;20056;-36
2023/10/02 10:51:34;;;;;;;9.88;5.80;;;20.40;84.60;;;;;;5090286;28;20048;-35
2023/10/02 10:54:19;;;;;;;11.18;5.63;;;19.40;87.70;;;;;;5092803;28;20051;-35
2023/10/02 10:56:56;;;;;;;10.52;5.13;;;19.70;78.30;;;;;;5094894;28;20052;-30
2023/10/02 10:59:24;;;;;;;11.40;5.53;;;;;;;;;;5094388;28;20139;-32
2023/10/02 11:02:09;;;;;;;11.05;5.82;;;19.90;83.20;;;;;;5090466;28;20429;-34
2023/10/02 11:04:39;;;;;;;9.55;5.90;;;20.10;69.80;;;;;;5087470;28;20045;-33
2023/10/02 11:07:19;;;;;;;12.48;6.13;;;20.00;86.40;;;;;;5088297;28;20048;-34
2023/10/02 11:10:14;;;;;;;14.18;6.43;;;18.80;69.00;;;;;;5081653;28;20057;-33
2023/10/02 11:12:40;;;;;;;12.63;6.60;;;;;;;;;;5083008;28;20048;-31
2023/10/02 11:15:28;;;;;;;13.20;6.72;;;20.10;69.80;;;;;;5094096;28;20071;-33
2023/10/02 11:18:23;;;;;;;14.80;6.70;;;20.10;69.70;;;;;;5094144;28;20131;-31
2023/10/02 11:20:51;;;;;;;17.58;8.27;;;20.40;74.90;;;;;;5093374;28;20043;-33
2023/10/02 11:23:23;;;;;;;14.68;7.35;;;20.40;87.70;;;;;;5092767;28;20044;-34
2023/10/02 11:25:56;;;;;;;14.98;7.47;;;20.20;84.90;;;;;;5093841;28;20051;-33
2023/10/02 11:28:30;;;;;;;15.40;7.40;;;20.40;83.50;;;;;;5092054;28;20409;-33
2023/10/02 11:31:29;;;;;;;16.37;6.80;;;20.60;79.80;;;;;;5093603;28;20126;-33
2023/10/02 11:34:05;;;;;;;16.67;7.70;;;21.20;88.20;;;;;;5092742;28;20040;-35
2023/10/02 11:36:35;;;;;;;16.17;7.00;;;19.90;87.20;;;;;;5093129;28;20146;-38
2023/10/02 11:39:08;;;;;;;17.50;7.88;;;20.40;77.00;;;;;;5092707;28;20060;-30
2023/10/02 11:41:36;;;;;;;19.88;7.75;;;20.20;69.90;;;;;;5090388;28;20056;-33
2023/10/02 11:44:05;;;;;;;15.18;7.10;;;20.50;87.50;;;;;;5093078;28;20067;-33
2023/10/02 11:46:32;;;;;;;14.02;7.13;;;;;;;;;;5092824;28;20051;-33
2023/10/02 11:48:59;;;;;;;18.48;7.85;;;;;;;;;;5091172;28;20147;-31
2023/10/02 11:51:28;;;;;;;15.82;7.40;;;21.10;87.90;;;;;;5092437;28;20566;-34
2023/10/02 11:53:58;;;;;;;17.25;8.10;;;20.20;70.00;;;;;;5092345;28;20515;-32
2023/10/02 11:56:26;;;;;;;17.23;7.70;;;;;;;;;;5092576;28;20135;-30
2023/10/02 11:58:54;;;;;;;16.42;7.45;;;19.30;73.20;;;;;;5092784;28;20040;-33
2023/10/02 12:01:22;;;;;;;15.45;7.05;;;20.30;70.10;;;;;;5094989;28;20044;-34
2023/10/02 12:03:49;;;;;;;17.00;7.55;;;;;;;;;;5092238;28;20046;-32
2023/10/02 12:06:17;;;;;;;16.35;7.28;;;20.60;88.40;;;;;;5091786;28;20611;-35
2023/10/02 12:08:45;;;;;;;13.20;6.88;;;20.60;86.00;;;;;;5092315;28;20040;-34
2023/10/02 12:11:13;;;;;;;14.15;6.93;;;;;;;;;;5091446;28;20131;-31
2023/10/02 12:13:40;;;;;;;12.57;6.82;;;20.10;86.90;;;;;;5089958;28;20123;-34
2023/10/02 12:16:11;;;;;;;16.23;7.78;;;20.80;77.50;;;;;;5092378;28;20131;-36
2023/10/02 12:18:38;;;;;;;14.80;6.72;;;20.60;87.60;;;;;;5092418;28;20055;-34
2023/10/02 12:21:08;;;;;;;15.50;7.57;;;20.50;88.30;;;;;;5091829;28;20075;-34
2023/10/02 12:23:39;;;;;;;14.57;6.90;;;;;;;;;;5091449;28;20486;-35
2023/10/02 12:26:08;;;;;;;13.77;6.93;;;;;;;;;;5092941;28;20554;-35
2023/10/02 12:28:35;;;;;;;13.85;6.53;;;;;;;;;;5093045;28;20052;-30
2023/10/02 12:31:09;;;;;;;12.13;6.50;;;20.10;87.50;;;;;;5093148;28;20139;-30
2023/10/02 12:33:38;;;;;;;12.20;6.88;;;;;;;;;;5098791;28;20071;-30
2023/10/02 12:36:12;;;;;;;9.80;5.53;;;21.00;87.80;;;;;;5101716;28;20565;-28
2023/10/02 12:38:40;;;;;;;13.93;7.15;;;20.60;83.50;;;;;;5101685;28;20560;-29
2023/10/02 12:41:12;;;;;;;12.30;6.45;;;20.60;73.30;;;;;;5093499;28;20097;-29
2023/10/02 12:43:39;;;;;;;11.32;6.28;;;21.30;88.90;;;;;;5093498;28;20425;-28
2023/10/02 12:46:07;;;;;;;10.50;6.00;;;20.40;88.20;;;;;;5093406;28;20135;-34
2023/10/02 12:48:34;;;;;;;12.68;6.72;;;20.50;88.60;;;;;;5093300;28;20477;-35
2023/10/02 12:51:05;;;;;;;11.18;6.10;;;21.40;80.70;;;;;;5093659;28;20093;-32
2023/10/02 12:53:32;;;;;;;13.95;6.53;;;20.50;88.10;;;;;;5093644;28;20059;-33
2023/10/02 12:55:59;;;;;;;16.67;6.45;;;20.10;88.40;;;;;;5093358;28;20187;-28
2023/10/02 12:58:27;;;;;;;11.27;6.30;;;19.70;87.40;;;;;;5093408;28;20044;-29
2023/10/02 13:00:54;;;;;;;11.65;6.00;;;20.90;88.10;;;;;;5092774;28;20505;-29
2023/10/02 13:03:24;;;;;;;14.40;6.47;;;20.40;70.50;;;;;;5093362;28;20127;-29
2023/10/02 13:05:51;;;;;;;14.18;6.97;;;20.10;88.50;;;;;;5093041;28;20477;-29
2023/10/02 13:08:17;;;;;;;11.43;6.22;;;20.30;80.60;;;;;;5092979;28;20135;-29
2023/10/02 13:10:45;;;;;;;11.77;5.97;;;;;;;;;;5093166;28;20429;-29
2023/10/02 13:13:14;;;;;;;10.93;5.43;;;20.40;88.20;;;;;;5092662;28;20051;-29
2023/10/02 13:15:42;;;;;;;11.88;6.22;;;;;;;;;;5092679;28;20071;-30
2023/10/02 13:18:09;;;;;;;12.43;5.65;;;20.50;87.90;;;;;;5092240;28;20108;-34
2023/10/02 13:20:38;;;;;;;12.20;5.88;;;19.90;71.30;;;;;;5092983;28;20082;-35
2023/10/02 13:23:05;;;;;;;12.57;6.20;;;20.30;87.80;;;;;;5092723;28;20570;-35
2023/10/02 13:25:32;;;;;;;11.63;5.75;;;21.10;82.10;;;;;;5092667;28;20131;-33
2023/10/02 13:27:59;;;;;;;11.88;6.05;;;20.50;88.60;;;;;;5092401;28;20151;-37
2023/10/02 13:30:30;;;;;;;10.00;5.68;;;;;;;;;;5092783;28;20051;-36
2023/10/02 13:32:56;;;;;;;11.30;5.50;;;19.90;87.90;;;;;;5091721;28;20071;-34
2023/10/02 13:35:23;;;;;;;10.60;5.88;;;20.70;83.80;;;;;;5094741;28;20560;-34
2023/10/02 13:37:52;;;;;;;11.40;5.70;;;20.40;70.50;;;;;;5092677;28;20135;-33
2023/10/02 13:40:26;;;;;;;9.77;5.43;;;;;;;;;;5093809;28;20624;-32
2023/10/02 13:42:53;;;;;;;11.68;5.53;;;20.60;76.60;;;;;;5090501;28;20051;-36
2023/10/02 13:45:20;;;;;;;12.63;5.57;;;20.70;88.10;;;;;;5092022;28;20044;-33
2023/10/02 13:47:46;;;;;;;10.27;5.70;;;20.90;72.40;;;;;;5103151;28;20134;-33